createdAt,value
2019-05-25T00:04:48.043Z,93.14
2019-05-25T00:09:52.598Z,93.12
2019-05-25T00:14:57.255Z,93.46
2019-05-25T00:20:01.836Z,93.62
2019-05-25T00:25:06.658Z,93.84
2019-05-25T00:30:11.231Z,93.89
2019-05-25T00:35:16.070Z,94.15
2019-05-25T00:40:21.482Z,94.36
2019-05-25T00:45:26.246Z,94.49
2019-05-25T00:50:30.817Z,94.49
2019-05-25T00:55:35.319Z,94.62
2019-05-25T01:00:40.063Z,94.55
2019-05-25T01:05:44.513Z,94.65
2019-05-25T01:10:49.085Z,94.67
2019-05-25T01:15:53.759Z,94.63
2019-05-25T01:20:58.567Z,94.67
2019-05-25T01:26:03.210Z,94.77
2019-05-25T01:31:07.967Z,94.83
2019-05-25T01:36:12.542Z,94.83
2019-05-25T01:41:17.343Z,94.91
2019-05-25T01:46:21.924Z,95.01
2019-05-25T01:51:26.458Z,95.04
2019-05-25T01:56:31.035Z,95.28
2019-05-25T02:01:35.675Z,95.41
2019-05-25T02:06:40.394Z,95.54
2019-05-25T02:11:45.103Z,95.71
2019-05-25T02:16:49.707Z,95.99
2019-05-25T02:21:54.666Z,96.19
2019-05-25T02:26:59.477Z,96.44
2019-05-25T02:32:04.115Z,96.87
2019-05-25T02:37:08.851Z,97.70
2019-05-25T02:42:13.846Z,99.04
2019-05-25T02:47:18.455Z,100.00
2019-05-25T02:52:23.178Z,100.00
2019-05-25T02:57:27.803Z,100.00
2019-05-25T03:02:32.600Z,100.00
2019-05-25T03:07:37.599Z,100.00
2019-05-25T03:12:42.256Z,100.00
2019-05-25T03:17:46.887Z,100.00
2019-05-25T03:22:51.430Z,100.00
2019-05-25T03:27:56.075Z,100.00
2019-05-25T03:33:00.773Z,100.00
2019-05-25T03:38:05.418Z,100.00
2019-05-25T03:43:10.064Z,100.00
2019-05-25T03:48:14.724Z,100.00
2019-05-25T03:53:19.430Z,100.00
2019-05-25T03:58:23.995Z,100.00
2019-05-25T04:03:28.556Z,100.00
2019-05-25T04:08:33.086Z,100.00
2019-05-25T04:13:37.605Z,100.00
2019-05-25T04:18:42.261Z,100.00
2019-05-25T04:23:46.793Z,100.00
2019-05-25T04:28:51.449Z,100.00
2019-05-25T04:33:56.063Z,100.00
2019-05-25T04:39:00.780Z,100.00
2019-05-25T04:44:05.369Z,100.00
2019-05-25T04:49:09.866Z,100.00
2019-05-25T04:54:14.462Z,100.00
2019-05-25T04:59:19.195Z,100.00
2019-05-25T05:04:23.859Z,100.00
2019-05-25T05:09:29.770Z,100.00
2019-05-25T05:14:34.245Z,100.00
2019-05-25T05:19:38.781Z,100.00
2019-05-25T05:24:43.467Z,100.00
2019-05-25T05:29:48.206Z,100.00
2019-05-25T05:34:53.378Z,100.00
2019-05-25T05:39:58.590Z,100.00
2019-05-25T05:45:04.752Z,100.00
2019-05-25T05:50:10.758Z,100.00
2019-05-25T05:55:18.903Z,100.00
2019-05-25T06:00:23.611Z,100.00
2019-05-25T06:05:28.220Z,100.00
2019-05-25T06:10:32.887Z,100.00
2019-05-25T06:15:37.881Z,100.00
2019-05-25T06:20:43.221Z,100.00
2019-05-25T06:25:47.738Z,100.00
2019-05-25T06:30:52.436Z,100.00
2019-05-25T06:35:56.911Z,100.00
2019-05-25T06:41:01.615Z,100.00
2019-05-25T06:46:06.548Z,100.00
2019-05-25T06:51:10.990Z,100.00
2019-05-25T06:56:15.575Z,100.00
2019-05-25T07:01:20.208Z,100.00
2019-05-25T07:06:25.236Z,100.00
2019-05-25T07:11:29.931Z,100.00
2019-05-25T07:16:34.573Z,100.00
2019-05-25T07:21:39.531Z,99.34
2019-05-25T07:26:44.239Z,98.62
2019-05-25T07:31:48.844Z,97.69
2019-05-25T07:36:53.547Z,96.76
2019-05-25T07:41:58.248Z,96.28
2019-05-25T07:47:02.867Z,95.11
2019-05-25T07:52:07.495Z,94.75
2019-05-25T07:57:12.179Z,94.41
2019-05-25T08:02:16.988Z,94.66
2019-05-25T08:07:21.767Z,94.74
2019-05-25T08:12:27.983Z,94.79
2019-05-25T08:17:32.570Z,94.27
2019-05-25T08:22:37.224Z,94.10
2019-05-25T08:27:41.788Z,93.15
2019-05-25T08:32:46.324Z,92.54
2019-05-25T08:37:50.995Z,91.65
2019-05-25T08:42:55.815Z,89.99
2019-05-25T08:48:00.604Z,88.59
2019-05-25T08:53:05.572Z,84.48
2019-05-25T08:58:10.523Z,81.72
2019-05-25T09:03:15.447Z,81.02
2019-05-25T09:08:20.132Z,79.17
2019-05-25T09:13:25.294Z,77.29
2019-05-25T09:18:30.338Z,76.68
2019-05-25T09:23:35.065Z,73.71
2019-05-25T09:28:40.051Z,71.49
2019-05-25T09:33:44.818Z,72.55
2019-05-25T09:38:49.509Z,72.38
2019-05-25T09:43:54.466Z,73.61
2019-05-25T09:48:59.191Z,71.18
2019-05-25T09:54:03.919Z,71.07
2019-05-25T09:59:19.845Z,69.62
2019-05-25T10:04:15.186Z,69.57
2019-05-25T10:09:19.892Z,69.73
2019-05-25T10:14:24.833Z,69.72
2019-05-25T10:19:29.710Z,67.16
2019-05-25T10:24:34.599Z,67.45
2019-05-25T10:29:39.449Z,66.87
2019-05-25T10:34:44.103Z,70.59
2019-05-25T10:39:48.786Z,69.69
2019-05-25T10:44:54.724Z,68.13
2019-05-25T10:49:59.375Z,69.36
2019-05-25T10:55:04.139Z,69.96
2019-05-25T11:00:10.076Z,66.79
2019-05-25T11:05:15.599Z,69.70
2019-05-25T11:10:20.786Z,69.20
2019-05-25T11:15:26.012Z,72.62
2019-05-25T11:20:30.898Z,73.19
2019-05-25T11:25:35.821Z,73.94
2019-05-25T11:30:40.413Z,74.82
2019-05-25T11:35:46.007Z,74.57
2019-05-25T11:40:50.859Z,74.46
2019-05-25T11:45:55.510Z,75.28
2019-05-25T11:51:00.251Z,73.69
2019-05-25T11:56:04.887Z,75.22
2019-05-25T12:01:09.518Z,76.25
2019-05-25T12:06:14.110Z,78.46
2019-05-25T12:11:19.031Z,80.79
2019-05-25T12:16:23.630Z,80.85
2019-05-25T12:21:28.211Z,79.88
2019-05-25T12:26:32.851Z,75.76
2019-05-25T12:31:37.646Z,69.34
2019-05-25T12:36:42.437Z,69.34
2019-05-25T12:41:47.163Z,71.24
2019-05-25T12:46:51.898Z,70.58
2019-05-25T12:51:56.472Z,71.33
2019-05-25T12:57:02.784Z,73.29
2019-05-25T13:02:08.430Z,73.01
2019-05-25T13:07:13.099Z,70.95
2019-05-25T13:12:18.604Z,71.00
2019-05-25T13:17:23.491Z,71.60
2019-05-25T13:22:28.110Z,72.26
2019-05-25T13:27:32.839Z,71.99
2019-05-25T13:32:37.578Z,72.45
2019-05-25T13:37:42.300Z,71.25
2019-05-25T13:42:47.066Z,73.92
2019-05-25T13:47:51.852Z,79.55
2019-05-25T13:52:56.599Z,81.14
2019-05-25T13:58:01.328Z,80.67
2019-05-25T14:03:06.365Z,81.40
2019-05-25T14:08:11.073Z,84.76
2019-05-25T14:13:16.103Z,85.71
2019-05-25T14:18:20.823Z,86.84
2019-05-25T14:23:25.719Z,87.99
2019-05-25T14:28:30.667Z,89.69
2019-05-25T14:33:35.251Z,89.95
2019-05-25T14:38:39.970Z,90.67
2019-05-25T14:43:44.678Z,91.26
2019-05-25T14:48:49.867Z,92.11
2019-05-25T14:53:54.713Z,92.68
2019-05-25T14:58:59.583Z,93.40
2019-05-25T15:04:04.318Z,93.97
2019-05-25T15:09:09.498Z,94.06
2019-05-25T15:14:14.287Z,94.17
2019-05-25T15:19:18.996Z,94.18
2019-05-25T15:24:23.862Z,94.49
2019-05-25T15:29:28.631Z,94.43
2019-05-25T15:34:33.411Z,94.56
2019-05-25T15:39:38.544Z,94.37
2019-05-25T15:44:43.320Z,94.06
2019-05-25T15:49:47.970Z,94.24
2019-05-25T15:54:52.758Z,93.71
2019-05-25T15:59:57.396Z,93.39
2019-05-25T16:05:02.064Z,93.50
2019-05-25T16:10:07.843Z,93.76
2019-05-25T16:15:15.543Z,93.37
2019-05-25T16:20:23.159Z,93.11
2019-05-25T16:25:27.867Z,92.77
2019-05-25T16:30:32.583Z,92.52
2019-05-25T16:35:37.479Z,92.09
2019-05-25T16:40:42.541Z,92.17
2019-05-25T16:45:47.149Z,91.91
2019-05-25T16:50:52.046Z,92.10
2019-05-25T16:55:56.992Z,92.23
2019-05-25T17:01:01.975Z,92.25
2019-05-25T17:06:07.005Z,92.35
2019-05-25T17:11:11.792Z,91.85
2019-05-25T17:16:16.498Z,91.37
2019-05-25T17:21:21.980Z,91.18
2019-05-25T17:26:26.770Z,91.05
2019-05-25T17:31:31.411Z,91.29
2019-05-25T17:36:36.483Z,91.45
2019-05-25T17:41:41.130Z,91.63
2019-05-25T17:46:46.060Z,91.75
2019-05-25T17:51:50.798Z,91.86
2019-05-25T17:56:55.706Z,92.28
2019-05-25T18:02:00.399Z,92.54
2019-05-25T18:07:05.210Z,92.65
2019-05-25T18:12:10.023Z,92.70
2019-05-25T18:17:14.893Z,92.58
2019-05-25T18:22:19.851Z,92.39
2019-05-25T18:27:24.462Z,92.43
2019-05-25T18:32:29.293Z,92.33
2019-05-25T18:37:33.953Z,91.94
2019-05-25T18:42:38.812Z,92.13
2019-05-25T18:47:43.620Z,92.12
2019-05-25T18:52:48.391Z,92.15
2019-05-25T18:57:53.203Z,92.34
2019-05-25T19:02:58.711Z,92.41
2019-05-25T19:08:03.560Z,92.28
2019-05-25T19:13:08.281Z,91.96
2019-05-25T19:18:13.091Z,91.82
2019-05-25T19:23:18.198Z,92.24
2019-05-25T19:28:23.076Z,92.34
2019-05-25T19:33:28.180Z,92.33
2019-05-25T19:38:32.879Z,92.33
2019-05-25T19:43:37.634Z,92.30
2019-05-25T19:48:42.401Z,92.26
2019-05-25T19:53:47.118Z,92.55
2019-05-25T19:58:51.911Z,92.67
2019-05-25T20:03:57.590Z,92.61
2019-05-25T20:09:02.834Z,93.01
2019-05-25T20:14:07.973Z,93.20
2019-05-25T20:19:12.930Z,93.40
2019-05-25T20:24:18.072Z,93.46
2019-05-25T20:29:22.820Z,93.49
2019-05-25T20:34:27.536Z,93.70
2019-05-25T20:39:32.640Z,93.76
2019-05-25T20:44:37.459Z,93.77
2019-05-25T20:49:42.187Z,94.00
2019-05-25T20:54:47.099Z,94.02
2019-05-25T20:59:51.931Z,94.04
2019-05-25T21:04:56.620Z,94.05
2019-05-25T21:10:01.311Z,94.13
2019-05-25T21:15:06.493Z,94.28
2019-05-25T21:20:12.650Z,94.36
2019-05-25T21:25:18.638Z,94.49
2019-05-25T21:30:23.862Z,94.50
2019-05-25T21:35:28.670Z,94.63
2019-05-25T21:40:33.652Z,94.84
2019-05-25T21:45:38.546Z,94.94
2019-05-25T21:50:43.499Z,95.09
2019-05-25T21:55:48.230Z,95.40
2019-05-25T22:00:52.970Z,95.47
2019-05-25T22:05:57.799Z,95.53
2019-05-25T22:11:02.838Z,95.77
2019-05-25T22:16:07.568Z,96.08
2019-05-25T22:21:13.239Z,96.18
2019-05-25T22:26:18.310Z,96.29
2019-05-25T22:31:23.066Z,96.42
2019-05-25T22:36:39.792Z,96.42
2019-05-25T22:41:34.400Z,96.23
2019-05-25T22:46:39.182Z,95.98
2019-05-25T22:51:43.990Z,95.90
2019-05-25T22:56:48.708Z,95.62
2019-05-25T23:01:53.621Z,95.45
2019-05-25T23:06:58.706Z,95.20
2019-05-25T23:12:03.554Z,95.13
2019-05-25T23:17:08.339Z,95.36
2019-05-25T23:22:14.212Z,95.44
2019-05-25T23:27:19.159Z,95.49
2019-05-25T23:32:23.890Z,95.29
2019-05-25T23:37:28.553Z,95.37
2019-05-25T23:42:33.510Z,95.26
2019-05-25T23:47:38.559Z,95.17
2019-05-25T23:52:43.312Z,94.92
2019-05-25T23:57:47.991Z,94.38
